Latest Coastal Weather Observations for Portland Airport

IDV60701

Issued at 9:42 pm EDT Wednesday 7 December 2022 (issued every 10 minutes, with the page automatically refreshed every 10 minutes)

About coastal observations | Map of coastal stations | Coastal observations for VIC | Marine services | Other Formats
Station Details ID: 090171 Name: CASHMORE AIRPORT Lat: -38.31 Lon: 141.47 Height: 80.9 m
Data from the previous 72 hours. | See also: Recent months at Portland Airport
Date/Time
EDT
Wind Sea
Height
m
Swell Vis
km
Cloud Weather Temp
°C
Press
MSL
hPa
Rain since
9am
mm
Dir  Spd
kts
Gust
kts
Height
m
Period
s
Dir
07/09:30pm SW 11 19 - - - - 10 Partly cloudy - 11.2 1012.7 0.4
07/09:00pm SW 12 21 - - - - 10 Cloudy - 11.6 1012.1 0.4
07/08:30pm SW 13 20 - - - - 10 Partly cloudy - 11.3 1011.9 0.4
07/08:00pm SW 13 22 - - - - 10 - - 11.9 1011.6 0.4
07/07:40pm SW 15 25 - - - - 10 Partly cloudy - 12.2 1011.4 0.4
07/07:30pm SW 16 24 - - - - 10 Partly cloudy - 12.5 1011.1 0.4
07/07:19pm SW 15 27 - - - - 10 Partly cloudy - 12.5 1010.9 0.4
07/07:00pm SW 15 23 - - - - 10 Partly cloudy - 12.5 1010.6 0.4
07/06:34pm SW 19 29 - - - - 10 Partly cloudy - 12.0 1010.2 0.4
07/06:30pm SW 18 26 - - - - 10 Partly cloudy - 12.8 1009.9 0.2
07/06:00pm SW 17 27 - - - - 10 Mostly cloudy - 13.5 1009.5 0.2
07/05:40pm SW 15 25 - - - - 10 Partly cloudy - 14.7 1009.3 0.2
07/05:30pm SW 16 25 - - - - 10 Partly cloudy - 13.7 1009.2 0.2
07/05:29pm SW 17 27 - - - - 10 Partly cloudy - 13.6 1009.2 0.2
07/05:00pm SW 17 26 - - - - 10 Partly cloudy - 13.2 1008.9 0.2
07/04:32pm SW 16 27 - - - - 10 Partly cloudy - 12.8 1008.6 0.2
07/04:30pm SW 16 23 - - - - 10 Partly cloudy - 12.7 1008.6 0.2
07/04:06pm SW 15 27 - - - - 10 Partly cloudy - 12.7 1008.1 0.2
07/04:00pm SW 13 21 - - - - 10 Partly cloudy - 13.4 1008.2 0.0
07/03:30pm WSW 17 24 - - - - 10 Partly cloudy - 13.4 1008.1 0.0
07/03:09pm WSW 17 30 - - - - 10 Partly cloudy - 13.3 1007.9 0.0
07/03:03pm WSW 19 29 - - - - 10 Partly cloudy - 14.5 1007.7 0.0
07/03:00pm WSW 21 29 - - - - 10 Cloudy - 14.5 1007.7 0.0
07/02:30pm W 22 29 - - - - 10 Partly cloudy - 15.2 1007.5 0.0
07/02:13pm W 17 27 - - - - 10 Partly cloudy - 16.3 1007.4 0.0
07/02:00pm WNW 16 24 - - - - 10 Partly cloudy - 14.6 1007.5 0.0
07/01:30pm W 18 24 - - - - 10 Partly cloudy - 14.8 1007.5 0.0
07/01:18pm W 17 27 - - - - 10 Partly cloudy - 15.9 1007.5 0.0
07/01:00pm W 17 24 - - - - 10 Partly cloudy - 16.2 1007.4 0.0
07/12:30pm WSW 16 21 - - - - 10 Partly cloudy - 15.8 1007.5 0.0
07/12:00pm W 14 21 - - - - 10 Mostly clear - 16.0 1007.6 0.0
07/11:30am WSW 13 18 - - - - 10 Partly cloudy - 15.4 1007.5 0.0
07/11:00am WSW 13 19 - - - - 10 Partly cloudy - 16.2 1007.4 0.0
07/10:30am WSW 14 19 - - - - 10 Partly cloudy - 13.9 1007.4 0.0
07/10:00am WSW 12 19 - - - - 10 Partly cloudy - 14.6 1007.2 0.0
07/09:30am WSW 11 16 - - - - 10 Partly cloudy - 13.7 1007.3 0.0
07/09:00am WSW 10 17 - - - - 10 Cloudy - 13.2 1007.3 0.0
07/08:30am SW 9 13 - - - - 10 Partly cloudy - 13.9 1006.9 0.0
07/08:00am SW 8 15 - - - - 10 Partly cloudy - 13.5 1006.6 0.0
07/07:30am SW 7 10 - - - - 10 Partly cloudy - 12.6 1006.3 0.0
07/07:00am SSW 7 11 - - - - 10 Partly cloudy - 12.3 1006.0 0.0
07/06:30am SW 7 10 - - - - 10 Partly cloudy - 12.0 1005.9 0.0
07/06:00am SSW 7 9 - - - - 10 Cloudy - 11.8 1005.5 0.0
07/05:30am SW 5 7 - - - - 10 Partly cloudy - 10.7 1005.4 0.0
07/05:00am WNW 3 5 - - - - 10 Partly cloudy - 8.6 1005.2 0.0
07/04:30am WNW 3 4 - - - - 10 Partly cloudy - 9.2 1005.1 0.0
07/04:00am NW 3 5 - - - - 10 Partly cloudy - 9.9 1005.0 0.0
07/03:30am W 3 5 - - - - 10 Partly cloudy - 10.1 1005.3 0.0
07/03:00am SSW 4 5 - - - - 10 Mostly cloudy - 9.4 1005.6 0.0
07/02:30am CALM 0 0 - - - - 10 Partly cloudy - 9.5 1005.7 0.0
07/02:00am CALM 0 0 - - - - 10 Cloudy - 10.6 1006.0 0.0
07/01:30am CALM 0 0 - - - - 10 Cloudy - 11.4 1006.2 0.0
07/01:00am CALM 0 0 - - - - 10 Cloudy - 11.5 1006.5 0.0
07/12:30am CALM 0 0 - - - - 10 Cloudy - 11.6 1006.6 0.0
07/12:00am CALM 0 0 - - - - 10 Cloudy - 11.5 1007.0 0.0
 
Date/Time
EDT
Wind Sea
Height
m
Swell Vis
km
Cloud Weather Temp
°C
Press
MSL
hPa
Rain since
9am
mm
Dir  Spd
kts
Gust
kts
Height
m
Period
s
Dir
06/11:30pm CALM 0 0 - - - - 10 Cloudy - 11.2 1007.2 0.0
06/11:00pm CALM 0 0 - - - - 10 Cloudy - 11.0 1007.5 0.0
06/10:30pm SE 2 6 - - - - 10 - - 11.3 1007.7 0.0
06/10:00pm SE 5 7 - - - - 10 - - 11.6 1007.8 0.0
06/09:30pm SE 4 5 - - - - 10 - - 12.2 1008.3 0.0
06/09:00pm SE 5 7 - - - - 10 Cloudy - 13.0 1008.5 0.0
06/08:30pm SE 7 9 - - - - 10 - - 13.3 1008.5 0.0
06/08:00pm ESE 7 10 - - - - 10 - - 13.5 1008.5 0.0
06/07:30pm SSE 7 10 - - - - 10 Partly cloudy - 14.2 1008.6 0.0
06/07:00pm SSE 8 12 - - - - 10 Partly cloudy - 14.7 1008.7 0.0
06/06:30pm SE 7 10 - - - - 10 Partly cloudy - 15.8 1008.7 0.0
06/06:00pm SSE 8 12 - - - - 10 Cloudy - 15.2 1008.9 0.0
06/05:30pm SSE 8 15 - - - - 10 Partly cloudy - 16.0 1008.8 0.0
06/05:00pm ESE 7 11 - - - - 10 - - 16.2 1009.1 0.0
06/04:30pm SSE 9 13 - - - - 10 Partly cloudy - 16.6 1009.4 0.0
06/04:00pm SSE 9 13 - - - - 10 Partly cloudy - 17.2 1009.7 0.0
06/03:30pm SSE 9 13 - - - - 10 Partly cloudy - 16.7 1010.2 0.0
06/03:00pm SSE 8 13 - - - - 10 Partly cloudy - 16.8 1010.6 0.0
06/02:30pm ESE 7 10 - - - - 10 Partly cloudy - 16.4 1010.8 0.0
06/02:00pm E 7 11 - - - - 10 Partly cloudy - 16.9 1011.1 0.0
06/01:30pm ESE 7 11 - - - - 10 Partly cloudy - 16.8 1011.4 0.0
06/01:00pm E 9 13 - - - - 10 - - 16.2 1011.8 0.0
06/12:30pm ENE 9 14 - - - - 10 Partly cloudy - 16.5 1011.8 0.0
06/12:00pm ENE 8 12 - - - - 10 Partly cloudy - 16.0 1012.4 0.0
06/11:30am ESE 9 15 - - - - 10 Cloudy - 14.8 1012.7 0.0
06/11:00am ESE 10 16 - - - - 10 Partly cloudy - 14.8 1012.9 0.0
06/10:30am SE 8 12 - - - - 10 Partly cloudy - 14.2 1013.6 0.0
06/10:00am ESE 11 16 - - - - 10 Partly cloudy - 14.6 1013.6 0.0
06/09:30am SE 10 16 - - - - 10 Cloudy - 14.0 1014.0 0.0
06/09:00am SE 10 16 - - - - 10 Mostly cloudy - 13.2 1014.2 0.0
06/08:30am SE 9 15 - - - - 10 Cloudy - 13.6 1014.2 0.0
06/08:00am SSE 7 11 - - - - 10 Cloudy - 12.4 1014.2 0.0
06/07:30am SE 10 14 - - - - 10 Cloudy - 12.5 1013.7 0.0
06/07:00am SE 8 12 - - - - 10 Cloudy - 11.7 1014.0 0.0
06/06:30am SE 6 10 - - - - 10 Cloudy - 11.3 1014.0 0.0
06/06:00am SSE 7 10 - - - - 10 Mostly cloudy - 11.3 1014.1 0.0
06/05:30am SSE 5 9 - - - - 10 Cloudy - 11.5 1014.1 0.0
06/05:00am SE 6 9 - - - - 10 Cloudy - 11.7 1014.5 0.0
06/04:30am SE 8 11 - - - - 10 Cloudy - 11.5 1014.3 0.0
06/04:00am SE 9 13 - - - - 10 Cloudy - 11.6 1014.7 0.0
06/03:30am SE 7 9 - - - - 10 Cloudy - 11.6 1015.0 0.0
06/03:00am SE 7 10 - - - - 10 Cloudy - 11.8 1015.5 0.0
06/02:30am SSE 6 10 - - - - 10 Cloudy - 11.7 1015.7 0.0
06/02:00am SE 8 11 - - - - 10 Cloudy - 11.8 1016.1 0.0
06/01:30am SE 5 8 - - - - 10 Cloudy - 11.9 1016.3 0.0
06/01:00am SSE 6 9 - - - - 10 Cloudy - 12.1 1016.5 0.0
06/12:30am SE 7 12 - - - - 10 Cloudy - 12.2 1016.6 0.0
06/12:00am SE 7 9 - - - - 10 Cloudy - 12.1 1016.7 0.0
 
Date/Time
EDT
Wind Sea
Height
m
Swell Vis
km
Cloud Weather Temp
°C
Press
MSL
hPa
Rain since
9am
mm
Dir  Spd
kts
Gust
kts
Height
m
Period
s
Dir
05/11:30pm SE 7 10 - - - - 10 Cloudy - 11.8 1016.8 0.0
05/11:00pm SE 10 14 - - - - 10 Cloudy - 12.3 1017.0 0.0
05/10:30pm SE 7 12 - - - - 10 Cloudy - 12.4 1017.0 0.0
05/10:00pm SE 9 13 - - - - 10 Partly cloudy - 12.5 1017.1 0.0
05/09:30pm SSE 8 12 - - - - 10 Cloudy - 12.6 1017.0 0.0
05/09:00pm SSE 7 11 - - - - 10 Cloudy - 12.7 1017.1 0.0
05/08:30pm SSE 7 12 - - - - 10 Cloudy - 12.7 1017.2 0.0
05/08:00pm SSE 7 13 - - - - 10 Cloudy - 12.9 1017.3 0.0
05/07:30pm S 9 12 - - - - 10 Cloudy - 13.1 1017.2 0.0
05/07:00pm S 8 13 - - - - 10 Cloudy - 13.2 1017.0 0.0
05/06:30pm SSE 10 16 - - - - 10 Cloudy - 13.7 1016.8 0.0
05/06:00pm SSE 10 17 - - - - 10 Mostly cloudy - 13.8 1016.7 0.0
05/05:30pm SSE 9 14 - - - - 10 Cloudy - 14.1 1016.6 0.0
05/05:00pm SSE 10 18 - - - - 10 Cloudy - 14.5 1016.7 0.0
05/04:30pm S 10 17 - - - - 10 Partly cloudy - 14.7 1016.7 0.0
05/04:00pm S 10 18 - - - - 10 Partly cloudy - 14.7 1016.8 0.0
05/03:30pm S 11 19 - - - - 10 Partly cloudy - 14.7 1016.9 0.0
05/03:00pm S 12 18 - - - - 10 Cloudy - 14.1 1017.0 0.0
05/02:30pm S 13 19 - - - - 10 Partly cloudy - 14.9 1016.9 0.0
05/02:00pm S 13 21 - - - - 10 Partly cloudy - 14.9 1016.9 0.0
05/01:30pm S 11 17 - - - - 10 Partly cloudy - 16.1 1016.9 0.0
05/01:00pm S 12 18 - - - - 10 Cloudy - 15.6 1016.8 0.0
05/12:30pm SSE 11 18 - - - - 10 Partly cloudy - 15.0 1016.5 0.0
05/12:00pm S 11 17 - - - - 10 Cloudy - 15.0 1016.4 0.0
05/11:30am S 12 20 - - - - 10 Partly cloudy - 14.3 1016.3 0.0
05/11:00am S 13 20 - - - - 10 Partly cloudy - 13.9 1016.0 0.0
05/10:30am S 12 20 - - - - 10 Partly cloudy - 14.6 1015.6 0.0
05/10:00am S 12 19 - - - - 10 Partly cloudy - 12.8 1015.5 0.0
05/09:30am S 11 18 - - - - 10 Partly cloudy - 12.7 1015.4 0.0
05/09:00am S 11 19 - - - - 10 Cloudy - 12.9 1015.1 0.6
05/08:30am SSE 11 17 - - - - 10 Partly cloudy - 12.2 1014.8 0.6
05/08:22am SSE 10 15 - - - - 10 Partly cloudy - 12.2 1014.8 0.6
05/08:15am S 11 17 - - - - 7 Partly cloudy - 12.0 1014.7 0.6
05/08:12am S 11 18 - - - - 5 Partly cloudy - 11.9 1014.6 0.6
05/08:00am S 12 20 - - - - 10 Partly cloudy - 12.4 1014.6 0.6
05/07:30am SSE 10 17 - - - - 9 Partly cloudy - 12.5 1014.1 0.6
05/07:24am SSE 11 17 - - - - 7 Partly cloudy - 12.3 1014.1 0.6
05/07:07am S 11 18 - - - - 10 Partly cloudy - 12.4 1013.9 0.2
05/07:00am S 12 23 - - - - 8 Partly cloudy - 12.1 1013.9 0.2
05/06:30am SSE 9 17 - - - - 10 Partly cloudy - 12.8 1013.5 0.2
05/06:26am SSE 9 17 - - - - 10 Partly cloudy - 12.7 1013.4 0.2
05/06:23am SSE 9 16 - - - - 10 Partly cloudy - 12.7 1013.4 0.2
05/06:00am S 11 18 - - - - 10 Cloudy Rain 12.9 1013.3 0.2
05/05:30am S 12 17 - - - - 10 Partly cloudy - 13.3 1012.9 0.0
05/05:08am S 11 22 - - - - 10 Partly cloudy - 13.5 1012.5 0.0
05/05:00am S 11 22 - - - - 10 Partly cloudy - 13.6 1012.4 0.0
05/04:30am S 11 18 - - - - 10 Partly cloudy - 13.8 1011.9 0.0
05/04:00am S 9 14 - - - - 10 Partly cloudy - 13.5 1011.8 0.0
05/03:30am S 11 17 - - - - 10 Partly cloudy - 13.9 1011.7 0.0
05/03:00am S 11 17 - - - - 10 Cloudy - 14.1 1011.6 0.0
05/02:30am S 14 21 - - - - 10 Partly cloudy - 13.9 1011.3 0.0
05/02:00am SSW 11 18 - - - - 10 Partly cloudy - 14.0 1011.1 0.0
05/01:30am S 11 18 - - - - 9 Partly cloudy - 14.0 1010.8 0.0
05/01:00am SSW 10 17 - - - - 7 Partly cloudy - 14.0 1010.6 0.0
05/12:30am SSW 12 19 - - - - 10 Partly cloudy - 14.5 1010.4 0.0
05/12:00am SSW 11 17 - - - - 10 Mostly cloudy - 15.0 1010.1 0.0
 
Date/Time
EDT
Wind Sea
Height
m
Swell Vis
km
Cloud Weather Temp
°C
Press
MSL
hPa
Rain since
9am
mm
Dir  Spd
kts
Gust
kts
Height
m
Period
s
Dir
04/11:30pm SW 10 14 - - - - 10 Partly cloudy - 15.4 1009.9 0.0
04/11:00pm SW 10 15 - - - - 10 Cloudy - 15.4 1009.8 0.0
04/10:30pm SW 12 17 - - - - 10 Cloudy - 15.2 1009.7 0.0
04/10:00pm WSW 14 21 - - - - 10 Cloudy - 15.3 1009.1 0.0

Other formats

Comma delimited format used in spreadsheet applications
http://www.bom.gov.au/fwo/IDV60701/IDV60701.94828.axf

JavaScript Object Notation format (JSON) in row-major order
http://www.bom.gov.au/fwo/IDV60701/IDV60701.94828.json

Data quality

Most of these data are generated automatically and are frequently updated. Quality checks on data are not normally performed. It is possible for incorrect values to appear. Refer to information at About Latest Weather Observations and please check the disclaimer before using these data.